GIJÓN CAMPUS, ASTURIAS

latitud = 43° 31' 23''N | Longitud = 005° 37' 16''W
26 metros sobre el nivel del mar | datos mensuales

Fecha, hora, temperatura, viento dirección y velocidad, humedad y presión.

  • 25-09-2017 00:00:00 | 17.40°C | Sur |4.00 km/h | 93.00% | 1017.80 hPa
  • 24-09-2017 23:00:00 | 17.90°C | Noroeste |10.00 km/h | 91.00% | 1017.10 hPa
  • 24-09-2017 22:00:00 | 18.40°C | Sudeste |8.00 km/h | 92.00% | 1017.50 hPa
  • 24-09-2017 21:00:00 | 18.90°C | Noroeste |5.00 km/h | 87.00% | 1017.40 hPa
  • 24-09-2017 20:00:00 | 19.30°C | Noroeste |8.00 km/h | 80.00% | 1016.10 hPa
  • 24-09-2017 19:00:00 | 20.80°C | Norte |10.00 km/h | 70.00% | 1015.40 hPa
  • 24-09-2017 18:00:00 | 21.70°C | Norte |4.00 km/h | 64.00% | 1014.90 hPa
  • 24-09-2017 17:00:00 | 21.70°C | Noroeste |8.00 km/h | 66.00% | 1014.90 hPa
  • 24-09-2017 16:00:00 | 23.10°C | Norte |8.00 km/h | 66.00% | 1014.60 hPa
  • 24-09-2017 15:00:00 | 22.40°C | Norte |8.00 km/h | 68.00% | 1014.60 hPa
  • 24-09-2017 14:00:00 | 22.70°C | Norte |10.00 km/h | 68.00% | 1014.80 hPa
  • 24-09-2017 13:00:00 | 22.50°C | Norte |8.00 km/h | 70.00% | 1014.80 hPa
  • 24-09-2017 12:00:00 | 20.90°C | Sur |3.00 km/h | 77.00% | 1015.20 hPa
  • 24-09-2017 11:00:00 | 18.00°C | Noroeste |3.00 km/h | 86.00% | 1015.60 hPa
  • 24-09-2017 10:00:00 | 14.80°C | Sudeste |3.00 km/h | 100.00% | 1015.30 hPa
  • 24-09-2017 09:00:00 | 10.90°C | Sudeste |3.00 km/h | 100.00% | 1015.00 hPa
  • 24-09-2017 08:00:00 | 10.60°C | Sudeste |3.00 km/h | 100.00% | 1014.90 hPa
  • 24-09-2017 07:00:00 | 11.00°C | Este |3.00 km/h | 100.00% | 1015.10 hPa
  • 24-09-2017 06:00:00 | 11.30°C | Sudeste |5.00 km/h | 100.00% | 1015.00 hPa
  • 24-09-2017 05:00:00 | 11.80°C | Sur |2.00 km/h | 100.00% | 1015.00 hPa
  • 24-09-2017 04:00:00 | 12.40°C | Sur |2.00 km/h | 100.00% | 1015.50 hPa
  • 24-09-2017 03:00:00 | 12.70°C | Sudeste |4.00 km/h | 99.00% | 1015.90 hPa
  • 24-09-2017 02:00:00 | 13.40°C | Sudeste |4.00 km/h | 98.00% | 1015.80 hPa
  • 24-09-2017 01:00:00 | 14.30°C | Sur |2.00 km/h | 98.00% | 1016.20 hPa
    • Gijón hora a hora, datos reales de la temperatura, viento dirección, velocidad, más la humedad relativa y presión atmosférica.
      La estación meteorológica del Campus de Viesques de Gijón hora a hora, mes a mes, año a año; presentada de una forma gráfica, datos recogidos desde el mes de enero del año 2014. Recomendamos un ordenador de sobremesa: https://meteorologia.tike10.com/asturias-gijon.php